Time;durP1;ratioP1;P1;durP2;ratioP2;P2;SDS_P1;SDS_P2;PMS_P1;PMS_P2;Temp;Humidity;BMP_temperature;BMP_pressure;BME280_temperature;BME280_humidity;BME280_pressure;Samples;Min_cycle;Max_cycle;Signal;HPM_P1;HPM_P2
2024/01/11 00:00:48;;;;;;;118.65;40.67;;;;;;;-5.13;100.00;97414.00;4981046;28;20046;-72
2024/01/11 00:03:14;;;;;;;125.45;41.15;;;;;;;-5.12;100.00;97413.78;4975349;28;20034;-75
2024/01/11 00:05:41;;;;;;;129.48;42.78;;;;;;;-5.07;100.00;97415.72;4981207;28;20049;-75
2024/01/11 00:08:07;;;;;;;120.30;42.63;;;;;;;-5.08;100.00;97409.53;4976474;28;20061;-74
2024/01/11 00:10:32;;;;;;;125.90;43.25;;;;;;;-5.10;100.00;97400.97;4964343;28;20046;-75
2024/01/11 00:12:57;;;;;;;121.93;39.97;;;;;;;-5.15;100.00;97403.56;4982891;28;20141;-74
2024/01/11 00:15:23;;;;;;;121.47;42.22;;;;;;;-5.16;100.00;97398.50;4960324;28;20054;-78
2024/01/11 00:17:48;;;;;;;121.15;44.13;;;;;;;-5.25;100.00;97401.59;4982958;28;20377;-76
2024/01/11 00:20:14;;;;;;;111.43;39.83;;;;;;;-5.22;100.00;97401.09;4990484;28;20065;-73
2024/01/11 00:22:39;;;;;;;128.40;45.85;;;;;;;-5.22;100.00;97409.13;4995483;28;20046;-75
2024/01/11 00:25:05;;;;;;;118.00;40.83;;;;;;;-5.27;100.00;97402.91;4976726;28;20034;-73
2024/01/11 00:27:31;;;;;;;120.20;41.08;;;;;;;-5.24;100.00;97405.88;4981816;28;20073;-74
2024/01/11 00:29:56;;;;;;;113.55;39.50;;;;;;;-5.31;100.00;97413.28;4982157;28;20076;-74
2024/01/11 00:32:21;;;;;;;120.88;40.50;;;;;;;-5.40;100.00;97399.53;4975404;28;20146;-77
2024/01/11 00:34:47;;;;;;;114.85;40.65;;;;;;;-5.50;100.00;97414.59;4983852;28;20058;-76
2024/01/11 00:37:13;;;;;;;126.50;45.33;;;;;;;-5.59;100.00;97417.69;4974822;28;20666;-74
2024/01/11 00:39:38;;;;;;;115.18;42.50;;;;;;;-5.67;100.00;97411.94;4981671;28;20035;-76
2024/01/11 00:42:04;;;;;;;117.22;40.33;;;;;;;-5.74;100.00;97408.63;4969718;28;20035;-75
2024/01/11 00:44:29;;;;;;;120.97;40.05;;;;;;;-5.79;100.00;97412.06;4980933;28;20073;-74
2024/01/11 00:46:55;;;;;;;131.60;41.08;;;;;;;-5.81;100.00;97404.28;4981745;28;20675;-74
2024/01/11 00:49:21;;;;;;;116.03;40.15;;;;;;;-5.77;100.00;97409.94;4954726;28;20125;-72
2024/01/11 00:51:46;;;;;;;115.93;41.15;;;;;;;-5.88;100.00;97418.84;4979788;28;20043;-73
2024/01/11 00:54:12;;;;;;;116.15;40.95;;;;;;;-5.88;100.00;97410.84;4975995;28;20042;-74
2024/01/11 00:56:37;;;;;;;108.78;38.03;;;;;;;-5.96;100.00;97415.56;4979638;28;20073;-73
2024/01/11 00:59:04;;;;;;;106.22;39.28;;;;;;;-5.94;100.00;97415.28;4962195;28;20040;-69
2024/01/11 01:01:29;;;;;;;110.22;40.05;;;;;;;-6.00;100.00;97424.28;4979871;28;20061;-72
2024/01/11 01:03:55;;;;;;;111.63;40.72;;;;;;;-6.17;100.00;97417.09;4981627;28;20057;-73
2024/01/11 01:06:20;;;;;;;120.45;41.08;;;;;;;-6.22;100.00;97414.31;4975992;28;20077;-73
2024/01/11 01:08:45;;;;;;;103.18;38.25;;;;;;;-6.28;100.00;97414.47;4979070;28;20121;-74
2024/01/11 01:11:11;;;;;;;116.97;39.75;;;;;;;-6.38;100.00;97415.91;4958387;28;20047;-73
2024/01/11 01:13:36;;;;;;;104.72;36.97;;;;;;;-6.47;100.00;97417.34;4980660;28;20038;-74
2024/01/11 01:16:02;;;;;;;112.32;39.65;;;;;;;-6.54;100.00;97425.50;4979285;28;20035;-72
2024/01/11 01:18:27;;;;;;;111.55;37.85;;;;;;;-6.52;100.00;97422.59;4976516;28;20054;-75
2024/01/11 01:20:53;;;;;;;108.38;39.08;;;;;;;-6.47;100.00;97427.22;4982215;28;20437;-75
2024/01/11 01:23:18;;;;;;;121.70;44.38;;;;;;;-6.39;100.00;97426.81;4974849;28;20493;-73
2024/01/11 01:25:43;;;;;;;130.25;44.08;;;;;;;-6.38;100.00;97428.44;4982013;28;20069;-76
2024/01/11 01:28:10;;;;;;;119.95;41.22;;;;;;;-6.35;100.00;97435.97;4979067;28;20081;-73
2024/01/11 01:30:35;;;;;;;113.13;40.80;;;;;;;-6.28;100.00;97444.63;4978846;28;20129;-73
2024/01/11 01:33:00;;;;;;;113.10;42.17;;;;;;;-6.29;100.00;97435.00;4980128;28;20133;-71
2024/01/11 01:35:26;;;;;;;109.13;41.40;;;;;;;-6.29;100.00;97437.66;4966656;28;20049;-73
2024/01/11 01:37:51;;;;;;;125.38;49.20;;;;;;;-6.28;100.00;97425.97;4981232;28;20042;-74
2024/01/11 01:40:16;;;;;;;123.95;47.78;;;;;;;-6.27;100.00;97430.22;4976201;28;20680;-73
2024/01/11 01:42:46;;;;;;;111.90;46.53;;;;;;;-6.31;100.00;97426.44;4983866;28;20042;-73
2024/01/11 01:45:12;;;;;;;107.97;39.67;;;;;;;-6.30;100.00;97429.91;4961768;28;20122;-72
2024/01/11 01:47:40;;;;;;;125.82;46.60;;;;;;;-6.30;100.00;97429.91;4983065;28;20034;-74
2024/01/11 01:50:07;;;;;;;111.05;42.25;;;;;;;-6.28;100.00;97438.47;4976721;28;20039;-74
2024/01/11 01:52:34;;;;;;;105.20;39.42;;;;;;;-6.26;100.00;97439.06;4978719;28;20169;-74
2024/01/11 01:55:02;;;;;;;118.95;48.20;;;;;;;-6.25;100.00;97438.78;4988926;28;20042;-72
2024/01/11 01:57:29;;;;;;;119.05;40.05;;;;;;;-6.18;100.00;97441.31;4994514;28;20054;-72
2024/01/11 01:59:55;;;;;;;106.40;37.72;;;;;;;-6.15;100.00;97438.19;4982573;28;20046;-73
2024/01/11 02:02:21;;;;;;;116.45;42.10;;;;;;;-6.17;100.00;97435.75;4980418;28;20089;-73
2024/01/11 02:04:46;;;;;;;112.43;41.78;;;;;;;-6.06;100.00;97446.59;4987026;28;20051;-73
2024/01/11 02:07:12;;;;;;;106.35;37.40;;;;;;;-6.05;100.00;97445.53;4978757;28;20077;-73
2024/01/11 02:09:39;;;;;;;112.35;39.83;;;;;;;-6.09;100.00;97445.19;4980320;28;20057;-72
2024/01/11 02:12:06;;;;;;;113.15;41.85;;;;;;;-6.03;100.00;97443.44;4976862;28;20049;-72
2024/01/11 02:14:32;;;;;;;107.32;39.55;;;;;;;-6.05;100.00;97448.19;4981942;28;20121;-73
2024/01/11 02:16:57;;;;;;;107.93;37.78;;;;;;;-5.99;100.00;97452.59;4981108;28;20057;-73
2024/01/11 02:19:22;;;;;;;121.88;40.22;;;;;;;-5.97;100.00;97458.47;4976568;28;20604;-73
2024/01/11 02:21:52;;;;;;;115.10;44.00;;;;;;;-5.99;100.00;97457.91;4981595;28;20045;-71
2024/01/11 02:24:18;;;;;;;101.88;35.72;;;;;;;-5.83;100.00;97459.75;4982511;28;20042;-73
2024/01/11 02:27:03;;;;;;;98.50;38.30;;;;;;;-5.84;100.00;97458.13;4987864;28;20135;-74
2024/01/11 02:29:29;;;;;;;114.07;40.58;;;;;;;-5.86;100.00;97462.91;4979402;28;20089;-72
2024/01/11 02:31:55;;;;;;;112.28;37.33;;;;;;;-5.64;100.00;97459.50;4982532;28;20050;-73
2024/01/11 02:34:23;;;;;;;102.35;36.72;;;;;;;-5.55;100.00;97452.69;4976542;28;20049;-74
2024/01/11 02:36:49;;;;;;;101.97;36.95;;;;;;;-5.39;100.00;97464.41;4986828;28;20186;-72
2024/01/11 02:39:18;;;;;;;105.10;38.75;;;;;;;-5.39;100.00;97453.72;4975952;28;20057;-71
2024/01/11 02:41:44;;;;;;;106.68;43.97;;;;;;;-5.81;100.00;97462.19;4980763;28;20050;-72
2024/01/11 02:44:09;;;;;;;109.68;39.42;;;;;;;-5.79;100.00;97465.41;4976896;28;20062;-72
2024/01/11 02:46:35;;;;;;;115.18;41.72;;;;;;;-5.85;100.00;97464.53;4984071;28;20185;-72
2024/01/11 02:49:00;;;;;;;108.72;45.22;;;;;;;-5.95;100.00;97454.47;4984439;28;20393;-70
2024/01/11 02:51:26;;;;;;;103.95;38.55;;;;;;;-5.85;100.00;97447.69;4979739;28;20194;-71
2024/01/11 02:53:51;;;;;;;107.30;42.13;;;;;;;-5.89;100.00;97458.03;4987855;28;20038;-72
2024/01/11 02:56:16;;;;;;;124.55;45.05;;;;;;;-5.90;100.00;97448.44;4980830;28;20391;-72
2024/01/11 02:58:42;;;;;;;101.15;38.08;;;;;;;-5.72;100.00;97449.25;4986871;28;20042;-74
2024/01/11 03:01:07;;;;;;;116.30;41.13;;;;;;;-5.87;100.00;97442.63;4977751;28;20100;-74
2024/01/11 03:03:32;;;;;;;106.35;39.40;;;;;;;-5.81;100.00;97449.63;4982824;28;20049;-72
2024/01/11 03:05:58;;;;;;;112.95;40.83;;;;;;;-5.80;100.00;97450.44;4983099;28;20042;-74
2024/01/11 03:08:23;;;;;;;111.65;39.08;;;;;;;-5.68;100.00;97439.69;4977013;28;20784;-73
2024/01/11 03:10:49;;;;;;;112.50;39.47;;;;;;;-5.77;100.00;97445.44;4984497;28;20104;-74
2024/01/11 03:13:14;;;;;;;112.53;37.95;;;;;;;-5.61;100.00;97445.69;4979101;28;20045;-74
2024/01/11 03:15:40;;;;;;;119.97;43.88;;;;;;;-5.82;100.00;97448.00;4983268;28;20541;-74
2024/01/11 03:18:05;;;;;;;121.78;43.28;;;;;;;-5.77;100.00;97447.28;4978585;28;20046;-73
2024/01/11 03:20:31;;;;;;;113.18;39.65;;;;;;;-5.73;100.00;97442.28;4981132;28;20038;-75
2024/01/11 03:22:56;;;;;;;113.88;41.42;;;;;;;-5.78;100.00;97438.50;4982359;28;20133;-73
2024/01/11 03:25:21;;;;;;;116.25;41.65;;;;;;;-5.71;100.00;97445.50;4981672;28;20097;-72
2024/01/11 03:27:47;;;;;;;124.32;44.60;;;;;;;-5.79;100.00;97434.19;4982560;28;20514;-73
2024/01/11 03:30:12;;;;;;;120.30;43.60;;;;;;;-5.78;100.00;97437.66;4977068;28;20042;-73
2024/01/11 03:32:38;;;;;;;123.78;43.97;;;;;;;-5.82;100.00;97439.22;4981186;28;20035;-73
2024/01/11 03:35:07;;;;;;;118.30;43.30;;;;;;;-5.79;100.00;97442.19;4978651;28;20334;-70
2024/01/11 03:37:32;;;;;;;126.20;43.33;;;;;;;-5.82;100.00;97445.34;4982588;28;20038;-73
2024/01/11 03:39:58;;;;;;;115.95;43.38;;;;;;;-5.76;100.00;97447.06;4980368;28;20035;-72
2024/01/11 03:42:24;;;;;;;128.02;43.03;;;;;;;-5.79;100.00;97444.06;4978203;28;20980;-73
2024/01/11 03:44:49;;;;;;;105.70;39.83;;;;;;;-5.73;100.00;97451.09;4991540;28;20042;-74
2024/01/11 03:47:15;;;;;;;120.60;43.65;;;;;;;-5.82;100.00;97442.69;4976396;28;20038;-73
2024/01/11 03:49:40;;;;;;;129.27;45.85;;;;;;;-5.81;100.00;97443.50;4981410;28;20046;-70
2024/01/11 03:52:06;;;;;;;120.70;42.78;;;;;;;-5.86;100.00;97440.75;4977635;28;20034;-73
2024/01/11 03:54:31;;;;;;;129.02;45.08;;;;;;;-5.88;100.00;97442.84;4974461;28;20069;-72
2024/01/11 03:56:57;;;;;;;125.82;43.95;;;;;;;-5.87;100.00;97445.28;4983278;28;20073;-72
2024/01/11 03:59:22;;;;;;;129.40;43.17;;;;;;;-5.85;100.00;97439.69;4977576;28;20073;-72
2024/01/11 04:01:48;;;;;;;118.75;40.75;;;;;;;-5.82;100.00;97442.69;4967501;28;20458;-74
2024/01/11 04:04:13;;;;;;;128.93;44.40;;;;;;;-5.84;100.00;97439.44;4978398;28;20585;-74
2024/01/11 04:06:39;;;;;;;125.35;44.42;;;;;;;-5.90;100.00;97437.75;4982274;28;20054;-72
2024/01/11 04:09:04;;;;;;;131.05;43.10;;;;;;;-5.87;100.00;97439.13;4976260;28;20092;-70
2024/01/11 04:11:30;;;;;;;134.38;44.38;;;;;;;-5.86;100.00;97444.22;4979982;28;20054;-72
2024/01/11 04:13:55;;;;;;;127.32;42.72;;;;;;;-5.88;100.00;97438.31;4979506;28;20038;-72
2024/01/11 04:16:21;;;;;;;115.03;42.17;;;;;;;-5.87;100.00;97428.44;4976532;28;20567;-72
2024/01/11 04:18:47;;;;;;;125.47;43.17;;;;;;;-5.90;100.00;97428.97;4983384;28;20568;-74
2024/01/11 04:21:29;;;;;;;125.97;43.35;;;;;;;-6.00;100.00;97433.09;4976419;28;20636;-73
2024/01/11 04:23:55;;;;;;;137.90;46.20;;;;;;;-6.02;100.00;97431.72;4986912;28;20560;-75
2024/01/11 04:26:20;;;;;;;125.30;42.70;;;;;;;-6.03;100.00;97432.75;4979195;28;20046;-75
2024/01/11 04:28:47;;;;;;;139.20;44.30;;;;;;;-5.97;100.00;97435.28;4980357;28;20558;-75
2024/01/11 04:31:13;;;;;;;112.47;40.35;;;;;;;-5.88;100.00;97438.31;4956848;28;20620;-74
2024/01/11 04:33:41;;;;;;;122.28;40.95;;;;;;;-5.66;100.00;97434.91;4979776;28;20047;-74
2024/01/11 04:36:06;;;;;;;128.13;40.95;;;;;;;-5.61;100.00;97438.47;4982872;28;20050;-73
2024/01/11 04:38:32;;;;;;;120.60;40.70;;;;;;;-5.42;100.00;97435.53;4978701;28;20089;-73
2024/01/11 04:40:57;;;;;;;118.72;38.63;;;;;;;-5.40;100.00;97430.78;4979537;28;20061;-72
2024/01/11 04:43:23;;;;;;;121.45;39.28;;;;;;;-5.29;100.00;97440.53;4958319;28;20652;-73
2024/01/11 04:45:48;;;;;;;114.97;38.72;;;;;;;-5.47;100.00;97427.47;4981353;28;20038;-73
2024/01/11 04:48:13;;;;;;;109.50;39.72;;;;;;;-5.70;100.00;97431.13;4974870;28;20049;-71
2024/01/11 04:50:39;;;;;;;106.43;40.47;;;;;;;-5.90;100.00;97432.44;4980880;28;20185;-72
2024/01/11 04:53:07;;;;;;;109.93;41.60;;;;;;;-6.04;100.00;97426.63;4975794;28;20575;-71
2024/01/11 04:55:32;;;;;;;118.63;42.20;;;;;;;-6.08;100.00;97432.69;4980743;28;20109;-72
2024/01/11 04:57:57;;;;;;;128.75;42.15;;;;;;;-6.11;100.00;97431.31;4963972;28;20677;-71
2024/01/11 05:00:23;;;;;;;127.18;43.40;;;;;;;-6.13;100.00;97432.59;4989583;28;20593;-72
2024/01/11 05:02:48;;;;;;;143.80;43.90;;;;;;;-6.12;100.00;97437.72;4979329;28;20379;-72
2024/01/11 05:05:14;;;;;;;138.85;44.85;;;;;;;-6.10;100.00;97432.09;4975006;28;20445;-71
2024/01/11 05:07:39;;;;;;;132.15;44.75;;;;;;;-6.16;100.00;97429.38;4981026;28;20116;-72
2024/01/11 05:10:05;;;;;;;143.70;47.42;;;;;;;-6.28;100.00;97427.81;4976207;28;20051;-69
2024/01/11 05:12:30;;;;;;;146.02;45.67;;;;;;;-6.26;100.00;97433.72;4980547;28;20038;-71
2024/01/11 05:14:56;;;;;;;144.40;51.10;;;;;;;-6.30;100.00;97432.56;4980676;28;20560;-73
2024/01/11 05:17:22;;;;;;;138.93;46.90;;;;;;;-6.31;100.00;97442.44;4974497;28;20046;-72
2024/01/11 05:19:47;;;;;;;134.50;45.38;;;;;;;-6.31;100.00;97430.97;4977280;28;20113;-72
2024/01/11 05:22:12;;;;;;;137.90;46.63;;;;;;;-6.32;100.00;97427.47;4977806;28;20397;-73
2024/01/11 05:24:38;;;;;;;132.35;45.97;;;;;;;-6.35;100.00;97431.44;4984157;28;20038;-73
2024/01/11 05:27:04;;;;;;;139.85;46.95;;;;;;;-6.40;100.00;97438.53;4978966;28;20050;-70
2024/01/11 05:29:29;;;;;;;123.25;43.17;;;;;;;-6.39;100.00;97432.97;4963335;28;20046;-72
2024/01/11 05:31:54;;;;;;;128.95;41.28;;;;;;;-6.39;100.00;97430.31;4981658;28;20045;-72
2024/01/11 05:34:20;;;;;;;135.52;44.17;;;;;;;-6.44;100.00;97427.56;4975245;28;20049;-73
2024/01/11 05:36:45;;;;;;;135.02;46.75;;;;;;;-6.48;100.00;97434.41;4981902;28;20027;-73
2024/01/11 05:39:10;;;;;;;132.48;46.47;;;;;;;-6.46;100.00;97428.81;4977030;28;20108;-74
2024/01/11 05:41:36;;;;;;;129.13;42.88;;;;;;;-6.46;100.00;97431.50;4981781;28;20421;-74
2024/01/11 05:44:01;;;;;;;121.70;42.53;;;;;;;-6.45;100.00;97430.44;4979458;28;20034;-75
2024/01/11 05:46:27;;;;;;;143.98;50.40;;;;;;;-6.48;100.00;97442.41;4973832;28;20485;-76
2024/01/11 05:48:52;;;;;;;132.00;47.00;;;;;;;-6.46;100.00;97442.16;4979138;28;20043;-75
2024/01/11 05:51:18;;;;;;;123.70;41.28;;;;;;;-6.43;100.00;97444.34;4978225;28;20065;-75
2024/01/11 05:53:43;;;;;;;133.05;40.55;;;;;;;-6.42;100.00;97449.44;4965519;28;20039;-75
2024/01/11 05:56:09;;;;;;;144.15;49.10;;;;;;;-6.50;100.00;97455.13;4975575;28;20133;-75
2024/01/11 05:58:36;;;;;;;147.45;52.80;;;;;;;-6.53;100.00;97453.78;4970320;28;20117;-74
2024/01/11 06:01:02;;;;;;;130.23;42.80;;;;;;;-6.49;100.00;97451.44;4977810;28;20057;-70
2024/01/11 06:03:28;;;;;;;125.97;41.38;;;;;;;-6.47;100.00;97453.88;4961447;28;20750;-73
2024/01/11 06:05:53;;;;;;;108.93;39.83;;;;;;;-6.46;100.00;97460.81;4962395;28;20049;-73
2024/01/11 06:08:19;;;;;;;128.25;41.70;;;;;;;-6.44;100.00;97456.88;4976344;28;20049;-74
2024/01/11 06:10:44;;;;;;;104.35;35.13;;;;;;;-6.36;100.00;97456.47;4976111;28;20050;-74
2024/01/11 06:13:09;;;;;;;115.78;39.80;;;;;;;-6.32;100.00;97462.13;4971550;28;20042;-73
2024/01/11 06:15:35;;;;;;;123.65;41.58;;;;;;;-6.43;100.00;97471.00;4979804;28;20034;-72
2024/01/11 06:18:00;;;;;;;126.32;45.15;;;;;;;-6.47;100.00;97464.53;4984735;28;20740;-73
2024/01/11 06:20:26;;;;;;;123.18;38.60;;;;;;;-6.45;100.00;97465.09;4963569;28;20073;-72
2024/01/11 06:22:51;;;;;;;109.85;35.53;;;;;;;-6.33;100.00;97468.53;4993982;28;20043;-73
2024/01/11 06:25:17;;;;;;;119.45;38.00;;;;;;;-6.31;100.00;97462.97;4978441;28;20050;-73
2024/01/11 06:27:46;;;;;;;124.00;41.05;;;;;;;-6.50;100.00;97468.47;4983729;28;20390;-74
2024/01/11 06:30:12;;;;;;;99.72;35.30;;;;;;;-6.54;100.00;97470.78;4978770;28;20069;-73
2024/01/11 06:32:37;;;;;;;105.03;35.55;;;;;;;-6.51;100.00;97468.72;4974760;28;20494;-74
2024/01/11 06:35:04;;;;;;;104.97;39.05;;;;;;;-6.61;100.00;97485.31;4980096;28;20050;-72
2024/01/11 06:37:29;;;;;;;105.35;36.35;;;;;;;-6.56;100.00;97485.41;4982210;28;20073;-75
2024/01/11 06:39:54;;;;;;;108.75;40.30;;;;;;;-6.65;100.00;97473.53;4983431;28;20469;-73
2024/01/11 06:42:20;;;;;;;111.90;40.75;;;;;;;-6.66;100.00;97490.53;4981859;28;20595;-75
2024/01/11 06:44:45;;;;;;;99.20;36.50;;;;;;;-6.70;100.00;97487.53;4982915;28;20173;-74
2024/01/11 06:47:11;;;;;;;87.15;32.72;;;;;;;-6.69;100.00;97485.72;4978915;28;20042;-73
2024/01/11 06:49:42;;;;;;;108.03;38.38;;;;;;;-6.77;100.00;97487.69;4981383;28;20121;-74
2024/01/11 06:52:07;;;;;;;87.55;31.83;;;;;;;-6.73;100.00;97491.50;4974806;28;20146;-74
2024/01/11 06:54:33;;;;;;;85.95;32.45;;;;;;;-6.74;100.00;97494.41;4982245;28;20039;-73
2024/01/11 06:56:58;;;;;;;90.95;30.80;;;;;;;-6.80;100.00;97506.00;4985979;28;20715;-74
2024/01/11 06:59:24;;;;;;;90.60;32.33;;;;;;;-6.83;100.00;97499.28;4977785;28;20499;-74
2024/01/11 07:01:49;;;;;;;100.90;37.67;;;;;;;-6.88;100.00;97501.81;4982644;28;20064;-74
2024/01/11 07:04:15;;;;;;;98.93;34.75;;;;;;;-6.89;100.00;97516.22;4979502;28;20053;-75
2024/01/11 07:06:40;;;;;;;101.60;36.10;;;;;;;-6.90;100.00;97524.44;4981430;28;20138;-74
2024/01/11 07:09:06;;;;;;;94.32;33.90;;;;;;;-6.92;100.00;97522.00;4978617;28;20045;-74
2024/01/11 07:11:32;;;;;;;92.45;32.95;;;;;;;-6.96;100.00;97529.63;4981827;28;20129;-73
2024/01/11 07:13:58;;;;;;;95.45;31.75;;;;;;;-6.96;100.00;97523.50;4982016;28;20115;-73
2024/01/11 07:16:23;;;;;;;97.13;33.10;;;;;;;-6.97;100.00;97533.38;4979100;28;20092;-72
2024/01/11 07:18:49;;;;;;;84.63;31.95;;;;;;;-6.98;100.00;97526.41;4984838;28;20681;-73
2024/01/11 07:21:23;;;;;;;94.82;37.15;;;;;;;-7.02;100.00;97525.25;4986304;28;20053;-73
2024/01/11 07:23:48;;;;;;;89.63;31.00;;;;;;;-6.99;100.00;97510.66;4980173;28;20402;-74
2024/01/11 07:26:13;;;;;;;82.20;30.85;;;;;;;-7.07;100.00;97527.00;4973113;28;20049;-70
2024/01/11 07:28:39;;;;;;;97.13;37.20;;;;;;;-7.12;100.00;97523.16;4965479;28;20035;-73
2024/01/11 07:31:04;;;;;;;95.90;34.03;;;;;;;-7.10;100.00;97528.25;4976226;28;20097;-71
2024/01/11 07:33:30;;;;;;;84.68;31.15;;;;;;;-7.07;100.00;97527.00;4983030;28;20490;-70
2024/01/11 07:35:55;;;;;;;84.05;30.73;;;;;;;-7.12;100.00;97531.16;4982404;28;20389;-70
2024/01/11 07:38:21;;;;;;;96.57;34.95;;;;;;;-7.12;100.00;97525.03;4979671;28;20050;-73
2024/01/11 07:40:46;;;;;;;80.85;28.23;;;;;;;-7.11;100.00;97537.31;4968665;28;20141;-73
2024/01/11 07:43:11;;;;;;;89.95;31.60;;;;;;;-7.11;100.00;97542.63;4978306;28;20046;-73
2024/01/11 07:45:37;;;;;;;96.10;34.90;;;;;;;-7.18;100.00;97547.25;4981365;28;20061;-75
2024/01/11 07:48:03;;;;;;;93.85;34.10;;;;;;;-7.14;100.00;97549.22;4976005;28;20498;-71
2024/01/11 07:50:30;;;;;;;85.15;30.00;;;;;;;-7.12;100.00;97549.00;4980409;28;20133;-74
2024/01/11 07:52:56;;;;;;;75.45;28.63;;;;;;;-7.15;100.00;97541.47;4972160;28;20100;-77
2024/01/11 07:55:23;;;;;;;93.68;32.17;;;;;;;-7.09;100.00;97550.38;4982120;28;20053;-75
2024/01/11 07:57:49;;;;;;;83.55;30.00;;;;;;;-7.11;100.00;97543.44;4991264;28;20034;-72
2024/01/11 08:00:15;;;;;;;87.85;30.55;;;;;;;-7.08;100.00;97552.00;4983764;28;20061;-75
2024/01/11 08:02:41;;;;;;;86.00;29.17;;;;;;;-7.15;100.00;97547.63;4985552;28;20030;-74
2024/01/11 08:05:07;;;;;;;78.63;26.15;;;;;;;-7.11;100.00;97561.28;4977892;28;20104;-72
2024/01/11 08:07:32;;;;;;;78.72;28.60;;;;;;;-7.03;100.00;97560.09;4980591;28;20046;-75
2024/01/11 08:09:58;;;;;;;137.88;46.67;;;;;;;-7.08;100.00;97555.47;4979945;28;20046;-73
2024/01/11 08:12:23;;;;;;;109.10;42.33;;;;;;;-7.06;100.00;97574.69;4976783;28;20073;-73
2024/01/11 08:14:49;;;;;;;93.18;33.38;;;;;;;-7.00;100.00;97565.78;4981503;28;20133;-75
2024/01/11 08:17:14;;;;;;;106.65;34.78;;;;;;;-7.05;100.00;97570.19;4977299;28;20098;-74
2024/01/11 08:19:40;;;;;;;103.15;36.50;;;;;;;-7.11;100.00;97575.38;4984919;28;20069;-75
2024/01/11 08:22:06;;;;;;;108.88;36.50;;;;;;;-7.13;100.00;97573.97;4981227;28;20056;-73
2024/01/11 08:24:32;;;;;;;105.95;32.72;;;;;;;-6.99;100.00;97574.56;4979736;28;20129;-73
2024/01/11 08:26:57;;;;;;;94.63;30.50;;;;;;;-6.96;100.00;97580.25;4981057;28;20050;-74
2024/01/11 08:29:23;;;;;;;99.38;30.52;;;;;;;-6.93;100.00;97590.44;4957569;28;20049;-74
2024/01/11 08:31:49;;;;;;;108.95;40.08;;;;;;;-6.96;100.00;97582.09;4980490;28;20695;-74
2024/01/11 08:34:14;;;;;;;89.93;29.15;;;;;;;-6.81;100.00;97593.09;4975585;28;20038;-74
2024/01/11 08:36:39;;;;;;;103.65;31.83;;;;;;;-6.83;100.00;97595.16;4981401;28;20130;-74
2024/01/11 08:39:06;;;;;;;98.20;30.48;;;;;;;-6.87;100.00;97586.03;4974605;28;20046;-73
2024/01/11 08:41:32;;;;;;;104.15;34.08;;;;;;;-6.79;100.00;97590.19;4976077;28;20058;-73
2024/01/11 08:43:58;;;;;;;100.35;32.97;;;;;;;-6.78;100.00;97583.84;4980805;28;20042;-74
2024/01/11 08:46:27;;;;;;;91.45;32.05;;;;;;;-6.75;100.00;97591.38;4976519;28;20383;-74
2024/01/11 08:48:54;;;;;;;100.60;35.28;;;;;;;-6.77;100.00;97591.59;4979993;28;20050;-74
2024/01/11 08:51:19;;;;;;;109.18;36.70;;;;;;;-6.80;100.00;97588.59;4973476;28;20067;-74
2024/01/11 08:53:45;;;;;;;94.47;27.23;;;;;;;-6.69;100.00;97585.09;4978769;28;20046;-73
2024/01/11 08:56:10;;;;;;;93.47;30.95;;;;;;;-6.59;100.00;97585.31;4975604;28;20058;-74
2024/01/11 08:58:36;;;;;;;92.45;33.00;;;;;;;-6.68;100.00;97596.56;4979893;28;20050;-73
2024/01/11 09:01:02;;;;;;;80.55;28.92;;;;;;;-6.68;100.00;97597.38;4981247;28;20050;-70
2024/01/11 09:03:28;;;;;;;83.30;29.45;;;;;;;-6.68;100.00;97599.22;4976382;28;20133;-74
2024/01/11 09:05:56;;;;;;;85.45;32.33;;;;;;;-6.63;100.00;97604.66;4980882;28;20038;-73
2024/01/11 09:08:22;;;;;;;75.00;27.60;;;;;;;-6.65;100.00;97596.91;4973803;28;21519;-72
2024/01/11 09:10:49;;;;;;;85.97;27.13;;;;;;;-6.50;100.00;97600.94;4979566;28;20514;-73
2024/01/11 09:13:15;;;;;;;85.38;30.60;;;;;;;-6.50;100.00;97600.94;4974352;28;20058;-73
2024/01/11 09:15:41;;;;;;;73.43;30.83;;;;;;;-6.49;100.00;97603.38;4980248;28;20502;-74
2024/01/11 09:18:07;;;;;;;78.63;29.55;;;;;;;-6.47;100.00;97605.78;4980619;28;20077;-75
2024/01/11 09:20:33;;;;;;;69.30;26.25;;;;;;;-6.33;100.00;97604.50;4988874;28;20489;-72
2024/01/11 09:22:59;;;;;;;66.90;25.08;;;;;;;-6.40;100.00;97603.81;4980930;28;20050;-72
2024/01/11 09:25:24;;;;;;;76.97;27.50;;;;;;;-6.40;100.00;97611.81;4973624;28;20054;-74
2024/01/11 09:27:50;;;;;;;65.80;25.27;;;;;;;-6.40;100.00;97611.81;4979431;28;20042;-74
2024/01/11 09:30:15;;;;;;;69.40;29.50;;;;;;;-6.48;100.00;97609.50;4974139;28;20069;-74
2024/01/11 09:32:40;;;;;;;59.92;24.17;;;;;;;-6.44;100.00;97611.47;4980964;28;20050;-73
2024/01/11 09:35:06;;;;;;;61.17;26.45;;;;;;;-6.32;100.00;97610.63;4979581;28;20049;-74
2024/01/11 09:37:32;;;;;;;61.20;21.83;;;;;;;-6.04;100.00;97617.88;4980776;28;20043;-74
2024/01/11 09:39:57;;;;;;;61.70;26.30;;;;;;;-6.38;100.00;97607.06;4980232;28;20192;-72
2024/01/11 09:42:22;;;;;;;48.40;17.98;;;;;;;-6.15;100.00;97616.84;4972515;28;20043;-74
2024/01/11 09:44:48;;;;;;;47.03;19.92;;;;;;;-6.22;100.00;97619.66;4982476;28;20120;-75
2024/01/11 09:47:15;;;;;;;50.90;20.60;;;;;;;-6.07;100.00;97610.31;4977844;28;20129;-74
2024/01/11 09:49:44;;;;;;;54.30;24.75;;;;;;;-6.38;100.00;97623.03;4980500;28;20065;-72
2024/01/11 09:52:13;;;;;;;49.03;20.92;;;;;;;-6.32;100.00;97623.97;4977650;28;20038;-73
2024/01/11 09:54:40;;;;;;;49.72;18.65;;;;;;;-5.99;100.00;97621.44;4985229;28;20046;-73
2024/01/11 09:57:09;;;;;;;50.88;19.50;;;;;;;-6.05;100.00;97632.22;4979835;28;20398;-74
2024/01/11 09:59:35;;;;;;;53.03;23.25;;;;;;;-6.23;100.00;97628.72;4985021;28;20034;-74
2024/01/11 10:02:02;;;;;;;54.22;21.38;;;;;;;-6.23;100.00;97634.03;4986488;28;20046;-75
2024/01/11 10:04:28;;;;;;;62.63;23.48;;;;;;;-6.27;100.00;97629.41;4984890;28;20485;-74
2024/01/11 10:06:55;;;;;;;65.05;23.02;;;;;;;-6.20;100.00;97635.41;4985720;28;20038;-73
2024/01/11 10:09:20;;;;;;;61.15;22.88;;;;;;;-5.97;100.00;97637.22;4981957;28;20525;-74
2024/01/11 10:11:46;;;;;;;54.78;20.95;;;;;;;-5.87;100.00;97650.72;4985286;28;20046;-71
2024/01/11 10:14:14;;;;;;;53.45;22.55;;;;;;;-6.03;100.00;97654.13;4963422;28;20581;-75
2024/01/11 10:16:46;;;;;;;63.67;23.48;;;;;;;-6.06;100.00;97647.44;4987378;28;20034;-75
2024/01/11 10:19:13;;;;;;;60.70;23.20;;;;;;;-6.05;100.00;97638.41;5011644;28;20041;-74
2024/01/11 10:21:39;;;;;;;56.95;21.88;;;;;;;-6.06;100.00;97636.75;4986132;28;20042;-75
2024/01/11 10:24:04;;;;;;;68.40;26.73;;;;;;;-6.03;100.00;97635.47;4996926;28;20045;-72
2024/01/11 10:26:30;;;;;;;58.30;22.73;;;;;;;-6.18;100.00;97646.66;4987219;28;20152;-72
2024/01/11 10:28:59;;;;;;;69.55;27.58;;;;;;;-6.16;100.00;97639.22;4986275;28;20486;-73
2024/01/11 10:31:28;;;;;;;69.30;25.52;;;;;;;-6.04;100.00;97634.66;4980845;28;20525;-76
2024/01/11 10:33:53;;;;;;;71.35;25.65;;;;;;;-6.04;100.00;97639.19;4992947;28;20046;-75
2024/01/11 10:36:18;;;;;;;67.60;24.00;;;;;;;-6.17;100.00;97632.28;4991442;28;20053;-74
2024/01/11 10:38:46;;;;;;;66.80;26.67;;;;;;;-6.23;100.00;97623.38;4993223;28;20034;-75
2024/01/11 10:41:13;;;;;;;63.42;27.73;;;;;;;-6.18;100.00;97633.31;4985057;28;20038;-76
2024/01/11 10:43:39;;;;;;;64.03;26.15;;;;;;;-6.07;100.00;97640.47;4987710;28;20073;-74
2024/01/11 10:46:06;;;;;;;65.57;30.50;;;;;;;-6.08;100.00;97636.19;4984117;28;20062;-72
2024/01/11 10:48:37;;;;;;;68.65;28.33;;;;;;;-6.03;100.00;97636.31;4986947;28;20057;-74
2024/01/11 10:51:08;;;;;;;54.70;23.42;;;;;;;-5.89;100.00;97633.31;4984443;28;20129;-74
2024/01/11 10:53:45;;;;;;;67.93;27.63;;;;;;;-5.83;100.00;97638.53;4985120;28;20046;-74
2024/01/11 10:56:15;;;;;;;66.20;25.08;;;;;;;-5.90;100.00;97621.84;4980039;28;20540;-73
2024/01/11 10:58:42;;;;;;;63.00;24.88;;;;;;;-5.82;100.00;97625.97;4985028;28;20049;-74